createdAt,value
2022-09-03T00:00:11.269Z,62.77
2022-09-03T00:01:13.393Z,60.38
2022-09-03T00:01:55.357Z,57.72
2022-09-03T00:02:46.349Z,56.89
2022-09-03T00:03:34.983Z,56.93
2022-09-03T00:04:20.684Z,57.26
2022-09-03T00:05:17.486Z,57.33
2022-09-03T00:06:06.720Z,57.58
2022-09-03T00:06:49.813Z,58.95
2022-09-03T00:07:53.322Z,59.73
2022-09-03T00:08:44.721Z,59.90
2022-09-03T00:09:29.004Z,60.66
2022-09-03T00:10:12.155Z,61.41
2022-09-03T00:10:59.946Z,61.87
2022-09-03T00:12:06.365Z,62.21
2022-09-03T00:12:45.199Z,63.41
2022-09-03T00:13:26.219Z,63.19
2022-09-03T00:14:20.125Z,63.00
2022-09-03T00:15:15.432Z,62.76
2022-09-03T00:15:51.365Z,61.30
2022-09-03T00:16:30.298Z,58.23
2022-09-03T00:17:12.450Z,56.78
2022-09-03T00:18:01.175Z,56.08
2022-09-03T00:18:36.331Z,56.02
2022-09-03T00:19:12.032Z,56.37
2022-09-03T00:20:00.732Z,56.90
2022-09-03T00:20:47.586Z,57.19
2022-09-03T00:21:36.084Z,58.13
2022-09-03T00:22:19.870Z,58.66
2022-09-03T00:22:55.636Z,59.37
2022-09-03T00:23:31.633Z,60.11
2022-09-03T00:24:08.005Z,60.55
2022-09-03T00:24:50.541Z,60.81
2022-09-03T00:25:38.804Z,61.44
2022-09-03T00:26:12.489Z,61.94
2022-09-03T00:26:52.317Z,62.36
2022-09-03T00:27:28.502Z,62.71
2022-09-03T00:28:05.903Z,63.01
2022-09-03T00:29:04.146Z,62.62
2022-09-03T00:29:43.750Z,63.44
2022-09-03T00:30:18.221Z,60.92
2022-09-03T00:31:11.491Z,59.10
2022-09-03T00:31:49.264Z,58.15
2022-09-03T00:32:38.304Z,57.01
2022-09-03T00:33:19.173Z,56.99
2022-09-03T00:33:53.495Z,57.19
2022-09-03T00:34:29.464Z,57.60
2022-09-03T00:35:06.691Z,58.33
2022-09-03T00:36:05.439Z,58.89
2022-09-03T00:36:46.096Z,59.04
2022-09-03T00:37:19.162Z,59.49
2022-09-03T00:37:53.809Z,59.58
2022-09-03T00:38:28.650Z,60.95
2022-09-03T00:39:01.847Z,61.44
2022-09-03T00:39:37.174Z,61.93
2022-09-03T00:40:35.812Z,62.29
2022-09-03T00:41:17.392Z,62.82
2022-09-03T00:42:07.002Z,63.65
2022-09-03T00:42:56.995Z,63.33
2022-09-03T00:43:35.886Z,62.21
2022-09-03T00:44:19.934Z,59.49
2022-09-03T00:45:16.138Z,58.11
2022-09-03T00:46:19.857Z,56.94
2022-09-03T00:47:13.874Z,56.65
2022-09-03T00:47:56.807Z,57.03
2022-09-03T00:48:44.980Z,57.65
2022-09-03T00:49:43.017Z,58.32
2022-09-03T00:50:37.124Z,58.72
2022-09-03T00:51:17.563Z,59.49
2022-09-03T00:52:05.841Z,60.36
2022-09-03T00:53:23.512Z,61.01
2022-09-03T00:54:35.826Z,60.92
2022-09-03T00:55:25.289Z,61.89
2022-09-03T00:56:10.753Z,62.92
2022-09-03T00:57:16.208Z,64.07
2022-09-03T00:57:55.779Z,63.69
2022-09-03T00:59:04.511Z,61.97
2022-09-03T00:59:59.330Z,60.49
2022-09-03T01:00:32.432Z,58.67
2022-09-03T01:01:21.017Z,57.17
2022-09-03T01:02:12.709Z,56.95
2022-09-03T01:03:07.377Z,57.02
2022-09-03T01:04:06.803Z,57.45
2022-09-03T01:04:57.582Z,58.37
2022-09-03T01:06:08.036Z,59.11
2022-09-03T01:06:48.812Z,59.67
2022-09-03T01:07:22.337Z,60.59
2022-09-03T01:08:21.025Z,60.79
2022-09-03T01:08:54.268Z,61.58
2022-09-03T01:09:41.391Z,62.22
2022-09-03T01:10:32.621Z,62.46
2022-09-03T01:11:12.032Z,63.57
2022-09-03T01:12:13.830Z,63.46
2022-09-03T01:12:52.829Z,61.19
2022-09-03T01:13:34.860Z,60.57
2022-09-03T01:14:16.317Z,59.22
2022-09-03T01:15:16.638Z,57.49
2022-09-03T01:16:14.144Z,56.96
2022-09-03T01:16:56.492Z,57.05
2022-09-03T01:17:55.158Z,57.68
2022-09-03T01:19:09.510Z,58.46
2022-09-03T01:20:14.014Z,59.05
2022-09-03T01:21:32.126Z,59.81
2022-09-03T01:22:07.979Z,60.54
2022-09-03T01:22:58.126Z,61.66
2022-09-03T01:24:09.344Z,61.88
2022-09-03T01:25:00.612Z,62.91
2022-09-03T01:26:01.637Z,63.33
2022-09-03T01:26:57.966Z,62.13
2022-09-03T01:28:00.201Z,61.00
2022-09-03T01:29:12.526Z,59.64
2022-09-03T01:30:10.623Z,57.62
2022-09-03T01:30:49.573Z,57.68
2022-09-03T01:31:40.533Z,58.31
2022-09-03T01:32:28.298Z,58.92
2022-09-03T01:33:26.402Z,59.28
2022-09-03T01:34:08.399Z,59.84
2022-09-03T01:34:54.205Z,60.53
2022-09-03T01:35:49.373Z,61.03
2022-09-03T01:37:00.998Z,62.01
2022-09-03T01:37:48.823Z,61.67
2022-09-03T01:38:27.810Z,62.72
2022-09-03T01:39:04.969Z,63.72
2022-09-03T01:39:58.305Z,63.50
2022-09-03T01:40:52.157Z,63.18
2022-09-03T01:42:14.262Z,60.90
2022-09-03T01:43:16.878Z,61.58
2022-09-03T01:44:25.910Z,58.95
2022-09-03T01:45:02.138Z,56.93
2022-09-03T01:45:53.636Z,56.74
2022-09-03T01:46:51.537Z,57.06
2022-09-03T01:47:50.267Z,57.37
2022-09-03T01:48:35.441Z,58.05
2022-09-03T01:49:35.227Z,59.11
2022-09-03T01:50:40.065Z,59.46
2022-09-03T01:51:24.290Z,59.94
2022-09-03T01:52:20.142Z,60.94
2022-09-03T01:53:39.421Z,61.26
2022-09-03T01:54:53.717Z,61.87
2022-09-03T01:55:47.623Z,63.41
2022-09-03T01:56:51.911Z,62.42
2022-09-03T01:57:46.295Z,63.71
2022-09-03T01:58:31.667Z,61.43
2022-09-03T01:59:48.556Z,59.60
2022-09-03T02:00:21.934Z,57.75
2022-09-03T02:01:02.275Z,57.34
2022-09-03T02:01:50.260Z,57.50
2022-09-03T02:02:26.084Z,57.96
2022-09-03T02:03:05.961Z,58.67
2022-09-03T02:03:44.936Z,59.33
2022-09-03T02:04:23.728Z,59.74
2022-09-03T02:05:09.149Z,60.20
2022-09-03T02:05:44.358Z,60.64
2022-09-03T02:06:20.982Z,61.41
2022-09-03T02:06:57.774Z,61.85
2022-09-03T02:07:41.443Z,62.28
2022-09-03T02:08:14.685Z,62.65
2022-09-03T02:08:48.154Z,63.14
2022-09-03T02:09:21.779Z,63.01
2022-09-03T02:09:55.029Z,62.56
2022-09-03T02:10:43.387Z,61.56
2022-09-03T02:11:17.010Z,60.77
2022-09-03T02:11:56.197Z,59.13
2022-09-03T02:12:34.003Z,58.45
2022-09-03T02:13:10.825Z,57.60
2022-09-03T02:13:55.297Z,57.38
2022-09-03T02:14:30.501Z,57.55
2022-09-03T02:15:07.532Z,58.05
2022-09-03T02:15:48.280Z,58.58
2022-09-03T02:16:26.034Z,58.60
2022-09-03T02:17:01.479Z,58.60
2022-09-03T02:17:36.037Z,60.17
2022-09-03T02:18:22.719Z,60.64
2022-09-03T02:19:08.351Z,61.10
2022-09-03T02:19:41.781Z,61.62
2022-09-03T02:20:20.432Z,62.22
2022-09-03T02:20:55.032Z,62.55
2022-09-03T02:21:34.927Z,63.11
2022-09-03T02:22:08.349Z,63.29
2022-09-03T02:22:42.947Z,62.52
2022-09-03T02:23:17.305Z,61.77
2022-09-03T02:23:50.829Z,60.81
2022-09-03T02:24:26.455Z,59.96
2022-09-03T02:25:00.536Z,59.30
2022-09-03T02:25:39.801Z,58.13
2022-09-03T02:26:16.505Z,57.86
2022-09-03T02:26:50.143Z,57.87
2022-09-03T02:27:23.449Z,58.13
2022-09-03T02:27:56.829Z,58.52
2022-09-03T02:28:32.680Z,59.09
2022-09-03T02:29:06.247Z,59.57
2022-09-03T02:29:39.353Z,60.12
2022-09-03T02:30:13.119Z,60.64
2022-09-03T02:30:46.499Z,61.09
2022-09-03T02:31:20.155Z,61.57
2022-09-03T02:31:53.302Z,61.95
2022-09-03T02:32:27.185Z,62.47
2022-09-03T02:33:00.764Z,62.81
2022-09-03T02:33:38.983Z,63.27
2022-09-03T02:34:12.442Z,63.13
2022-09-03T02:34:45.733Z,62.34
2022-09-03T02:35:18.908Z,61.26
2022-09-03T02:35:52.671Z,60.27
2022-09-03T02:36:30.800Z,59.09
2022-09-03T02:37:13.992Z,58.10
2022-09-03T02:37:47.183Z,57.43
2022-09-03T02:38:26.110Z,57.37
2022-09-03T02:38:59.534Z,57.56
2022-09-03T02:39:36.174Z,58.11
2022-09-03T02:40:12.360Z,58.36
2022-09-03T02:40:46.186Z,59.10
2022-09-03T02:41:19.500Z,59.60
2022-09-03T02:41:57.725Z,60.13
2022-09-03T02:42:31.325Z,60.67
2022-09-03T02:43:09.083Z,61.18
2022-09-03T02:43:55.264Z,61.59
2022-09-03T02:44:33.604Z,61.92
2022-09-03T02:45:20.541Z,62.41
2022-09-03T02:46:00.110Z,62.99
2022-09-03T02:46:41.377Z,63.20
2022-09-03T02:47:15.523Z,62.69
2022-09-03T02:47:52.637Z,61.45
2022-09-03T02:48:25.889Z,60.62
2022-09-03T02:48:59.184Z,59.38
2022-09-03T02:49:32.866Z,58.24
2022-09-03T02:50:06.413Z,57.43
2022-09-03T02:50:42.881Z,57.16
2022-09-03T02:51:16.263Z,57.29
2022-09-03T02:51:49.473Z,57.66
2022-09-03T02:52:22.654Z,58.08
2022-09-03T02:52:56.162Z,58.58
2022-09-03T02:53:29.362Z,59.07
2022-09-03T02:54:03.141Z,59.63
2022-09-03T02:54:40.115Z,60.23
2022-09-03T02:55:13.435Z,60.50
2022-09-03T02:55:47.694Z,61.09
2022-09-03T02:56:20.852Z,61.56
2022-09-03T02:56:54.878Z,61.93
2022-09-03T02:57:28.857Z,62.28
2022-09-03T02:58:02.054Z,62.71
2022-09-03T02:58:35.429Z,63.21
2022-09-03T02:59:09.853Z,63.24
2022-09-03T02:59:47.269Z,62.62
2022-09-03T03:00:20.364Z,61.66
2022-09-03T03:00:54.471Z,60.62
2022-09-03T03:01:28.111Z,59.71
2022-09-03T03:02:02.576Z,58.49
2022-09-03T03:02:35.856Z,57.59
2022-09-03T03:03:09.106Z,57.05
2022-09-03T03:03:42.367Z,57.04
2022-09-03T03:04:16.099Z,57.30
2022-09-03T03:04:49.688Z,57.63
2022-09-03T03:05:30.401Z,58.13
2022-09-03T03:06:06.283Z,58.56
2022-09-03T03:06:39.402Z,59.41
2022-09-03T03:07:12.563Z,59.89
2022-09-03T03:07:45.804Z,60.37
2022-09-03T03:08:24.103Z,60.82
2022-09-03T03:08:57.424Z,61.23
2022-09-03T03:09:30.607Z,61.80
2022-09-03T03:10:04.685Z,62.22
2022-09-03T03:10:38.964Z,62.53
2022-09-03T03:11:12.100Z,63.05
2022-09-03T03:11:45.563Z,63.24
2022-09-03T03:12:19.638Z,62.60
2022-09-03T03:12:52.798Z,62.02
2022-09-03T03:13:27.459Z,60.95
2022-09-03T03:14:00.771Z,59.96
2022-09-03T03:14:34.016Z,58.70
2022-09-03T03:15:07.588Z,57.69
2022-09-03T03:15:40.732Z,57.07
2022-09-03T03:16:16.103Z,56.92
2022-09-03T03:16:50.585Z,57.14
2022-09-03T03:17:24.042Z,57.55
2022-09-03T03:17:57.806Z,58.09
2022-09-03T03:18:31.075Z,58.62
2022-09-03T03:19:04.489Z,59.14
2022-09-03T03:19:37.974Z,59.77
2022-09-03T03:20:11.416Z,60.24
2022-09-03T03:20:44.774Z,60.67
2022-09-03T03:21:19.429Z,61.17
2022-09-03T03:21:52.586Z,61.56
2022-09-03T03:22:25.750Z,61.98
2022-09-03T03:22:58.994Z,62.40
2022-09-03T03:23:33.515Z,62.82
2022-09-03T03:24:07.394Z,63.37
2022-09-03T03:24:41.082Z,63.21
2022-09-03T03:25:14.666Z,62.72
2022-09-03T03:25:49.085Z,61.91
2022-09-03T03:26:23.454Z,60.82
2022-09-03T03:27:00.330Z,59.89
2022-09-03T03:27:33.603Z,59.00
2022-09-03T03:28:07.533Z,57.73
2022-09-03T03:28:42.669Z,57.27
2022-09-03T03:29:18.089Z,57.19
2022-09-03T03:29:51.250Z,57.32
2022-09-03T03:30:24.623Z,57.79
2022-09-03T03:30:58.103Z,58.25
2022-09-03T03:31:32.135Z,58.78
2022-09-03T03:32:05.482Z,59.29
2022-09-03T03:32:38.723Z,59.82
2022-09-03T03:33:11.974Z,60.29
2022-09-03T03:33:45.926Z,60.84
2022-09-03T03:34:19.271Z,61.23
2022-09-03T03:34:52.370Z,61.74
2022-09-03T03:35:25.812Z,62.12
2022-09-03T03:35:59.415Z,62.46
2022-09-03T03:36:34.284Z,62.97
2022-09-03T03:37:07.570Z,63.20
2022-09-03T03:37:41.396Z,62.58
2022-09-03T03:38:14.723Z,61.84
2022-09-03T03:38:47.882Z,60.75
2022-09-03T03:39:21.433Z,59.74
2022-09-03T03:39:54.760Z,58.69
2022-09-03T03:40:28.573Z,57.60
2022-09-03T03:41:10.210Z,57.00
2022-09-03T03:41:43.357Z,56.93
2022-09-03T03:42:16.592Z,57.23
2022-09-03T03:42:50.374Z,57.61
2022-09-03T03:43:23.543Z,58.12
2022-09-03T03:43:58.753Z,58.68
2022-09-03T03:44:32.033Z,59.21
2022-09-03T03:45:06.758Z,59.77
2022-09-03T03:45:39.985Z,60.25
2022-09-03T03:46:15.313Z,60.70
2022-09-03T03:46:48.591Z,61.15
2022-09-03T03:47:21.793Z,61.61
2022-09-03T03:47:58.644Z,61.93
2022-09-03T03:48:32.743Z,62.28
2022-09-03T03:49:07.497Z,62.78
2022-09-03T03:49:40.827Z,63.33
2022-09-03T03:50:14.452Z,63.23
2022-09-03T03:50:47.767Z,62.54
2022-09-03T03:51:21.110Z,61.62
2022-09-03T03:51:54.395Z,60.59
2022-09-03T03:52:28.351Z,59.01
2022-09-03T03:53:01.780Z,58.28
2022-09-03T03:53:37.535Z,57.62
2022-09-03T03:54:10.713Z,57.37
2022-09-03T03:54:46.065Z,57.32
2022-09-03T03:55:19.363Z,57.68
2022-09-03T03:55:58.002Z,58.11
2022-09-03T03:56:31.604Z,58.50
2022-09-03T03:57:04.713Z,59.23
2022-09-03T03:57:38.061Z,59.76
2022-09-03T03:58:11.174Z,60.27
2022-09-03T03:58:44.598Z,60.78
2022-09-03T03:59:17.796Z,61.16
2022-09-03T03:59:51.119Z,61.60
2022-09-03T04:00:24.714Z,62.09
2022-09-03T04:01:12.789Z,62.47
2022-09-03T04:01:46.235Z,63.39
2022-09-03T04:02:19.678Z,63.13
2022-09-03T04:02:53.287Z,62.49
2022-09-03T04:03:26.532Z,61.71
2022-09-03T04:04:00.664Z,60.73
2022-09-03T04:04:34.251Z,59.91
2022-09-03T04:05:07.907Z,58.77
2022-09-03T04:05:46.240Z,57.91
2022-09-03T04:06:22.235Z,57.37
2022-09-03T04:06:55.377Z,57.33
2022-09-03T04:07:28.556Z,57.52
2022-09-03T04:08:03.026Z,57.84
2022-09-03T04:08:41.977Z,58.33
2022-09-03T04:09:15.066Z,58.79
2022-09-03T04:09:48.278Z,59.43
2022-09-03T04:10:21.348Z,59.89
2022-09-03T04:10:54.944Z,60.35
2022-09-03T04:11:28.285Z,60.78
2022-09-03T04:12:02.329Z,61.21
2022-09-03T04:12:35.692Z,61.62
2022-09-03T04:13:08.798Z,62.05
2022-09-03T04:13:44.276Z,62.41
2022-09-03T04:14:20.749Z,62.82
2022-09-03T04:14:53.889Z,63.40
2022-09-03T04:15:27.056Z,62.97
2022-09-03T04:16:03.458Z,62.34
2022-09-03T04:16:36.564Z,61.41
2022-09-03T04:17:09.705Z,60.35
2022-09-03T04:17:44.500Z,59.52
2022-09-03T04:18:17.602Z,58.64
2022-09-03T04:18:52.929Z,57.60
2022-09-03T04:19:26.076Z,57.15
2022-09-03T04:19:59.169Z,57.13
2022-09-03T04:20:32.419Z,57.37
2022-09-03T04:21:09.924Z,57.75
2022-09-03T04:21:43.779Z,58.17
2022-09-03T04:22:17.462Z,58.77
2022-09-03T04:22:52.046Z,59.33
2022-09-03T04:23:25.588Z,59.78
2022-09-03T04:23:59.704Z,60.23
2022-09-03T04:24:32.888Z,60.66
2022-09-03T04:25:06.590Z,61.19
2022-09-03T04:25:42.120Z,61.56
2022-09-03T04:26:18.635Z,61.87
2022-09-03T04:26:52.186Z,62.30
2022-09-03T04:27:25.319Z,62.68
2022-09-03T04:27:58.815Z,63.14
2022-09-03T04:28:33.279Z,63.13
2022-09-03T04:29:09.621Z,62.49
2022-09-03T04:29:42.751Z,61.69
2022-09-03T04:30:16.269Z,60.55
2022-09-03T04:30:50.074Z,59.73
2022-09-03T04:31:23.546Z,58.76
2022-09-03T04:32:15.249Z,57.86
2022-09-03T04:32:55.337Z,57.46
2022-09-03T04:33:28.709Z,57.56
2022-09-03T04:34:02.180Z,57.90
2022-09-03T04:34:35.645Z,58.32
2022-09-03T04:35:09.356Z,58.77
2022-09-03T04:35:43.637Z,59.41
2022-09-03T04:36:18.361Z,59.94
2022-09-03T04:36:52.992Z,60.49
2022-09-03T04:37:26.501Z,60.74
2022-09-03T04:37:59.684Z,61.25
2022-09-03T04:38:37.805Z,61.70
2022-09-03T04:39:10.892Z,62.07
2022-09-03T04:39:44.144Z,62.51
2022-09-03T04:40:17.922Z,63.05
2022-09-03T04:40:53.982Z,62.96
2022-09-03T04:41:29.175Z,62.95
2022-09-03T04:42:04.673Z,62.14
2022-09-03T04:42:37.728Z,61.09
2022-09-03T04:43:10.895Z,59.92
2022-09-03T04:43:45.304Z,58.99
2022-09-03T04:44:22.637Z,58.02
2022-09-03T04:44:55.815Z,57.39
2022-09-03T04:45:29.166Z,57.33
2022-09-03T04:46:16.079Z,57.50
2022-09-03T04:46:51.023Z,57.90
2022-09-03T04:47:24.188Z,58.54
2022-09-03T04:48:06.370Z,59.00
2022-09-03T04:48:40.034Z,59.42
2022-09-03T04:49:13.218Z,60.11
2022-09-03T04:49:47.415Z,60.56
2022-09-03T04:50:20.681Z,60.90
2022-09-03T04:50:55.344Z,61.37
2022-09-03T04:51:33.063Z,61.81
2022-09-03T04:52:06.364Z,62.09
2022-09-03T04:52:39.771Z,62.46
2022-09-03T04:53:12.924Z,62.93
2022-09-03T04:53:49.266Z,63.11
2022-09-03T04:54:22.425Z,63.04
2022-09-03T04:55:02.636Z,61.97
2022-09-03T04:55:37.284Z,61.23
2022-09-03T04:56:21.590Z,60.35
2022-09-03T04:56:54.759Z,59.91
2022-09-03T04:57:34.539Z,58.24
2022-09-03T04:58:08.320Z,57.41
2022-09-03T04:58:44.352Z,56.88
2022-09-03T04:59:17.547Z,56.84
2022-09-03T04:59:50.789Z,57.17
2022-09-03T05:00:23.969Z,57.59
2022-09-03T05:00:57.643Z,58.11
2022-09-03T05:01:33.137Z,58.55
2022-09-03T05:02:06.560Z,59.11
2022-09-03T05:02:40.743Z,59.73
2022-09-03T05:03:13.903Z,60.07
2022-09-03T05:03:47.622Z,60.51
2022-09-03T05:04:20.936Z,60.97
2022-09-03T05:04:54.457Z,61.32
2022-09-03T05:05:27.723Z,61.84
2022-09-03T05:06:01.014Z,62.02
2022-09-03T05:06:35.181Z,62.45
2022-09-03T05:07:08.721Z,62.84
2022-09-03T05:07:42.106Z,63.10
2022-09-03T05:08:15.377Z,63.06
2022-09-03T05:08:50.300Z,62.32
2022-09-03T05:09:23.774Z,61.24
2022-09-03T05:09:57.307Z,60.26
2022-09-03T05:10:31.301Z,59.34
2022-09-03T05:11:06.580Z,58.29
2022-09-03T05:11:39.767Z,57.42
2022-09-03T05:12:13.403Z,57.00
2022-09-03T05:12:50.128Z,57.01
2022-09-03T05:13:23.443Z,57.27
2022-09-03T05:13:59.309Z,57.65
2022-09-03T05:14:32.623Z,58.09
2022-09-03T05:15:06.858Z,58.65
2022-09-03T05:15:45.699Z,59.21
2022-09-03T05:16:20.102Z,59.66
2022-09-03T05:16:53.641Z,60.23
2022-09-03T05:17:28.070Z,60.74
2022-09-03T05:18:02.782Z,61.07
2022-09-03T05:18:37.166Z,61.58
2022-09-03T05:19:11.159Z,61.98
2022-09-03T05:19:45.037Z,62.37
2022-09-03T05:20:18.461Z,62.72
2022-09-03T05:21:02.538Z,63.08
2022-09-03T05:21:36.804Z,62.97
2022-09-03T05:22:09.978Z,61.86
2022-09-03T05:22:43.452Z,60.67
2022-09-03T05:23:16.759Z,59.64
2022-09-03T05:23:51.467Z,58.38
2022-09-03T05:24:25.264Z,57.34
2022-09-03T05:24:58.470Z,56.80
2022-09-03T05:25:35.075Z,56.71
2022-09-03T05:26:13.603Z,56.81
2022-09-03T05:26:47.227Z,57.16
2022-09-03T05:27:20.413Z,57.64
2022-09-03T05:27:54.594Z,58.21
2022-09-03T05:28:30.129Z,58.75
2022-09-03T05:29:08.292Z,59.23
2022-09-03T05:29:41.400Z,59.81
2022-09-03T05:30:14.636Z,60.10
2022-09-03T05:30:48.026Z,60.54
2022-09-03T05:31:22.751Z,60.91
2022-09-03T05:31:56.076Z,61.24
2022-09-03T05:32:31.902Z,61.58
2022-09-03T05:33:06.438Z,61.86
2022-09-03T05:33:44.403Z,62.10
2022-09-03T05:34:18.424Z,62.35
2022-09-03T05:34:51.938Z,62.80
2022-09-03T05:35:27.865Z,63.30
2022-09-03T05:36:09.007Z,63.25
2022-09-03T05:36:42.274Z,62.46
2022-09-03T05:37:15.784Z,60.96
2022-09-03T05:37:49.233Z,59.73
2022-09-03T05:38:22.497Z,58.52
2022-09-03T05:38:58.446Z,57.25
2022-09-03T05:39:32.409Z,56.87
2022-09-03T05:40:06.818Z,56.78
2022-09-03T05:40:41.825Z,56.96
2022-09-03T05:41:16.957Z,57.33
2022-09-03T05:41:53.242Z,57.70
2022-09-03T05:42:28.670Z,58.07
2022-09-03T05:43:06.517Z,58.49
2022-09-03T05:43:42.569Z,58.89
2022-09-03T05:44:15.827Z,59.45
2022-09-03T05:44:49.938Z,59.72
2022-09-03T05:45:23.659Z,60.32
2022-09-03T05:46:01.628Z,60.46
2022-09-03T05:46:38.359Z,60.86
2022-09-03T05:47:11.684Z,61.23
2022-09-03T05:47:45.419Z,61.57
2022-09-03T05:48:18.995Z,61.90
2022-09-03T05:48:52.411Z,62.27
2022-09-03T05:49:25.855Z,62.50
2022-09-03T05:49:59.109Z,62.86
2022-09-03T05:50:32.365Z,62.94
2022-09-03T05:51:11.955Z,62.38
2022-09-03T05:51:46.621Z,60.79
2022-09-03T05:52:22.017Z,60.04
2022-09-03T05:52:55.273Z,58.77
2022-09-03T05:53:29.635Z,57.54
2022-09-03T05:54:04.274Z,56.89
2022-09-03T05:54:37.590Z,56.65
2022-09-03T05:55:13.478Z,56.78
2022-09-03T05:55:56.256Z,57.13
2022-09-03T05:56:31.005Z,57.53
2022-09-03T05:57:04.944Z,58.11
2022-09-03T05:57:38.602Z,58.71
2022-09-03T05:58:11.788Z,59.05
2022-09-03T05:58:48.382Z,59.63
2022-09-03T05:59:21.544Z,59.90
2022-09-03T05:59:54.807Z,60.30
2022-09-03T06:00:28.179Z,60.77
2022-09-03T06:01:30.009Z,61.11
2022-09-03T06:02:03.391Z,60.84
2022-09-03T06:02:36.635Z,61.74
2022-09-03T06:03:10.163Z,62.08
2022-09-03T06:03:45.374Z,62.26
2022-09-03T06:04:19.522Z,62.37
2022-09-03T06:04:52.908Z,62.55
2022-09-03T06:05:26.063Z,62.70
2022-09-03T06:05:59.091Z,62.53
2022-09-03T06:06:35.653Z,61.83
2022-09-03T06:07:09.239Z,60.74
2022-09-03T06:07:42.714Z,59.71
2022-09-03T06:08:15.930Z,58.51
2022-09-03T06:08:49.379Z,57.50
2022-09-03T06:09:23.664Z,56.97
2022-09-03T06:09:57.305Z,56.82
2022-09-03T06:10:38.792Z,56.94
2022-09-03T06:11:14.230Z,57.17
2022-09-03T06:11:50.107Z,57.66
2022-09-03T06:12:23.727Z,58.11
2022-09-03T06:13:04.109Z,58.61
2022-09-03T06:13:37.819Z,59.05
2022-09-03T06:14:13.369Z,59.51
2022-09-03T06:14:46.615Z,59.78
2022-09-03T06:15:19.831Z,60.06
2022-09-03T06:16:04.361Z,60.14
2022-09-03T06:16:43.044Z,60.36
2022-09-03T06:17:16.464Z,60.72
2022-09-03T06:17:50.052Z,61.23
2022-09-03T06:18:23.319Z,61.61
2022-09-03T06:18:56.822Z,61.94
2022-09-03T06:19:29.998Z,62.21
2022-09-03T06:20:03.576Z,62.39
2022-09-03T06:20:37.452Z,62.59
2022-09-03T06:21:10.808Z,62.71
2022-09-03T06:21:47.610Z,62.55
2022-09-03T06:22:20.695Z,61.51
2022-09-03T06:22:53.898Z,59.72
2022-09-03T06:23:28.580Z,58.66
2022-09-03T06:24:03.248Z,57.53
2022-09-03T06:24:37.211Z,56.86
2022-09-03T06:25:11.498Z,56.62
2022-09-03T06:25:44.897Z,56.68
2022-09-03T06:26:20.199Z,56.96
2022-09-03T06:26:53.985Z,57.33
2022-09-03T06:27:29.613Z,57.73
2022-09-03T06:28:03.040Z,58.14
2022-09-03T06:28:39.165Z,58.75
2022-09-03T06:29:13.354Z,59.17
2022-09-03T06:29:46.554Z,59.56
2022-09-03T06:30:20.856Z,59.87
2022-09-03T06:30:54.858Z,60.18
2022-09-03T06:31:28.677Z,60.58
2022-09-03T06:32:05.255Z,61.04
2022-09-03T06:32:48.315Z,61.31
2022-09-03T06:33:22.506Z,61.27
2022-09-03T06:34:00.802Z,61.83
2022-09-03T06:34:37.613Z,62.06
2022-09-03T06:35:12.069Z,62.37
2022-09-03T06:35:47.379Z,62.68
2022-09-03T06:36:23.183Z,63.03
2022-09-03T06:36:57.026Z,62.85
2022-09-03T06:37:31.512Z,62.01
2022-09-03T06:38:05.610Z,60.91
2022-09-03T06:38:40.970Z,59.78
2022-09-03T06:39:15.253Z,58.45
2022-09-03T06:39:51.341Z,57.36
2022-09-03T06:40:27.036Z,56.77
2022-09-03T06:41:05.360Z,56.64
2022-09-03T06:41:40.602Z,56.93
2022-09-03T06:42:15.300Z,57.37
2022-09-03T06:43:03.772Z,57.77
2022-09-03T06:43:41.195Z,58.31
2022-09-03T06:44:15.789Z,58.87
2022-09-03T06:44:50.430Z,59.45
2022-09-03T06:45:24.646Z,59.94
2022-09-03T06:46:01.581Z,60.35
2022-09-03T06:46:39.640Z,60.71
2022-09-03T06:47:14.207Z,61.17
2022-09-03T06:47:48.269Z,61.62
2022-09-03T06:48:22.251Z,61.84
2022-09-03T06:48:56.632Z,62.20
2022-09-03T06:49:32.249Z,62.46
2022-09-03T06:50:07.204Z,62.75
2022-09-03T06:50:41.127Z,63.08
2022-09-03T06:51:21.860Z,62.85
2022-09-03T06:51:56.296Z,62.52
2022-09-03T06:52:39.036Z,61.23
2022-09-03T06:53:13.902Z,60.39
2022-09-03T06:53:52.183Z,58.90
2022-09-03T06:54:28.729Z,57.77
2022-09-03T06:55:04.088Z,57.07
2022-09-03T06:55:40.700Z,57.00
2022-09-03T06:56:18.716Z,57.24
2022-09-03T06:56:53.888Z,57.72
2022-09-03T06:57:31.603Z,58.33
2022-09-03T06:58:06.108Z,58.81
2022-09-03T06:58:44.648Z,59.38
2022-09-03T06:59:18.294Z,59.77
2022-09-03T06:59:52.259Z,60.35
2022-09-03T07:00:25.984Z,60.79
2022-09-03T07:01:14.380Z,61.09
2022-09-03T07:01:48.366Z,61.41
2022-09-03T07:02:23.615Z,62.01
2022-09-03T07:03:03.405Z,62.36
2022-09-03T07:03:38.604Z,62.76
2022-09-03T07:04:19.283Z,63.14
2022-09-03T07:04:54.717Z,63.39
2022-09-03T07:05:29.939Z,62.22
2022-09-03T07:06:06.382Z,61.17
2022-09-03T07:06:43.239Z,60.12
2022-09-03T07:07:17.432Z,59.00
2022-09-03T07:07:51.800Z,57.89
2022-09-03T07:08:26.260Z,57.31
2022-09-03T07:09:00.539Z,57.29
2022-09-03T07:09:38.523Z,57.50
2022-09-03T07:10:14.263Z,57.83
2022-09-03T07:10:47.790Z,58.30
2022-09-03T07:11:26.361Z,58.86
2022-09-03T07:11:59.490Z,59.33
2022-09-03T07:12:37.719Z,59.97
2022-09-03T07:13:10.892Z,60.40
2022-09-03T07:13:48.087Z,60.98
2022-09-03T07:14:22.825Z,61.39
2022-09-03T07:14:56.181Z,61.81
2022-09-03T07:15:29.508Z,62.22
2022-09-03T07:16:06.873Z,62.56
2022-09-03T07:16:42.070Z,63.02
2022-09-03T07:17:15.931Z,63.03
2022-09-03T07:17:50.645Z,62.24
2022-09-03T07:18:24.064Z,61.19
2022-09-03T07:18:58.130Z,60.00
2022-09-03T07:19:31.533Z,58.93
2022-09-03T07:20:05.045Z,57.65
2022-09-03T07:20:38.293Z,56.95
2022-09-03T07:21:14.786Z,56.82
2022-09-03T07:21:50.495Z,57.00
2022-09-03T07:22:26.082Z,57.24
2022-09-03T07:23:04.924Z,57.60
2022-09-03T07:23:39.619Z,58.12
2022-09-03T07:24:14.447Z,58.50
2022-09-03T07:24:47.942Z,58.98
2022-09-03T07:25:22.662Z,59.36
2022-09-03T07:26:02.161Z,59.79
2022-09-03T07:26:41.211Z,60.08
2022-09-03T07:27:15.176Z,60.39
2022-09-03T07:27:51.484Z,60.82
2022-09-03T07:28:26.335Z,61.09
2022-09-03T07:29:01.216Z,61.59
2022-09-03T07:29:34.369Z,62.09
2022-09-03T07:30:10.617Z,62.28
2022-09-03T07:30:43.836Z,62.58
2022-09-03T07:31:20.019Z,62.94
2022-09-03T07:31:53.619Z,62.82
2022-09-03T07:32:28.104Z,61.89
2022-09-03T07:33:04.844Z,60.46
2022-09-03T07:33:39.863Z,59.80
2022-09-03T07:34:14.264Z,58.41
2022-09-03T07:34:47.603Z,57.17
2022-09-03T07:35:21.663Z,56.57
2022-09-03T07:35:55.064Z,56.34
2022-09-03T07:36:35.247Z,56.32
2022-09-03T07:37:09.773Z,56.53
2022-09-03T07:37:43.986Z,56.86
2022-09-03T07:38:20.068Z,57.21
2022-09-03T07:38:57.084Z,57.52
2022-09-03T07:39:30.505Z,57.84
2022-09-03T07:40:04.661Z,58.15
2022-09-03T07:40:39.717Z,58.67
2022-09-03T07:41:23.930Z,58.98
2022-09-03T07:42:02.654Z,59.26
2022-09-03T07:42:36.459Z,59.94
2022-09-03T07:43:10.456Z,60.39
2022-09-03T07:43:48.720Z,60.66
2022-09-03T07:44:25.410Z,60.86
2022-09-03T07:44:59.969Z,61.13
2022-09-03T07:45:33.952Z,61.32
2022-09-03T07:46:08.871Z,61.56
2022-09-03T07:46:43.816Z,61.75
2022-09-03T07:47:19.913Z,62.02
2022-09-03T07:48:01.060Z,61.83
2022-09-03T07:48:37.458Z,62.22
2022-09-03T07:49:11.358Z,62.27
2022-09-03T07:49:44.688Z,62.44
2022-09-03T07:50:21.843Z,62.73
2022-09-03T07:51:01.483Z,62.81
2022-09-03T07:51:37.622Z,62.46
2022-09-03T07:52:11.739Z,60.94
2022-09-03T07:52:45.813Z,59.65
2022-09-03T07:53:21.345Z,58.68
2022-09-03T07:53:58.287Z,57.40
2022-09-03T07:54:32.339Z,56.82
2022-09-03T07:55:06.514Z,56.68
2022-09-03T07:55:40.646Z,56.98
2022-09-03T07:56:14.937Z,57.31
2022-09-03T07:56:48.600Z,57.59
2022-09-03T07:57:22.690Z,57.90
2022-09-03T07:57:57.189Z,58.33
2022-09-03T07:58:32.408Z,58.59
2022-09-03T07:59:06.597Z,59.02
2022-09-03T07:59:39.935Z,59.39
2022-09-03T08:00:14.727Z,59.65
2022-09-03T08:00:49.412Z,59.91
2022-09-03T08:01:24.173Z,60.31
2022-09-03T08:01:57.950Z,60.58
2022-09-03T08:02:31.525Z,60.85
2022-09-03T08:03:08.600Z,60.96
2022-09-03T08:03:51.837Z,61.15
2022-09-03T08:04:25.771Z,61.31
2022-09-03T08:04:58.978Z,61.61
2022-09-03T08:05:38.940Z,61.65
2022-09-03T08:06:13.716Z,61.66
2022-09-03T08:06:46.929Z,61.86
2022-09-03T08:07:19.958Z,62.01
2022-09-03T08:07:53.461Z,62.12
2022-09-03T08:08:27.804Z,62.25